sensor_id;sensor_type;location;lat;lon;timestamp;pressure;altitude;pressure_sealevel;temperature;humidity
13553;BME280;6847;48.830;9.116;2022-12-24T00:01:12;97387.06;;;14.83;66.67
13553;BME280;6847;48.830;9.116;2022-12-24T00:03:42;97382.41;;;14.84;66.80
13553;BME280;6847;48.830;9.116;2022-12-24T00:06:14;97385.94;;;14.84;66.65
13553;BME280;6847;48.830;9.116;2022-12-24T00:08:47;97386.25;;;14.82;66.82
13553;BME280;6847;48.830;9.116;2022-12-24T00:11:23;97385.44;;;14.82;66.59
13553;BME280;6847;48.830;9.116;2022-12-24T00:13:57;97389.28;;;14.81;66.63
13553;BME280;6847;48.830;9.116;2022-12-24T00:16:24;97380.63;;;14.79;66.64
13553;BME280;6847;48.830;9.116;2022-12-24T00:18:57;97381.28;;;14.76;66.51
13553;BME280;6847;48.830;9.116;2022-12-24T00:21:26;97349.78;;;14.53;66.65
13553;BME280;6847;48.830;9.116;2022-12-24T00:23:53;97379.16;;;14.73;66.63
13553;BME280;6847;48.830;9.116;2022-12-24T00:26:20;97385.09;;;14.75;66.62
13553;BME280;6847;48.830;9.116;2022-12-24T00:28:48;97391.69;;;14.74;66.64
13553;BME280;6847;48.830;9.116;2022-12-24T00:31:17;97383.81;;;14.72;66.64
13553;BME280;6847;48.830;9.116;2022-12-24T00:33:53;97380.78;;;14.74;66.66
13553;BME280;6847;48.830;9.116;2022-12-24T00:36:23;97381.91;;;14.73;66.65
13553;BME280;6847;48.830;9.116;2022-12-24T00:38:52;97384.13;;;14.71;66.68
13553;BME280;6847;48.830;9.116;2022-12-24T00:41:22;97386.38;;;14.69;66.32
13553;BME280;6847;48.830;9.116;2022-12-24T00:43:58;97394.06;;;14.67;66.42
13553;BME280;6847;48.830;9.116;2022-12-24T00:46:28;97388.44;;;14.63;66.33
13553;BME280;6847;48.830;9.116;2022-12-24T00:48:58;97377.34;;;14.60;66.30
13553;BME280;6847;48.830;9.116;2022-12-24T00:51:31;97383.44;;;14.57;66.50
13553;BME280;6847;48.830;9.116;2022-12-24T00:54:01;97394.16;;;14.53;66.41
13553;BME280;6847;48.830;9.116;2022-12-24T00:56:29;97399.28;;;14.46;66.33
13553;BME280;6847;48.830;9.116;2022-12-24T00:59:04;97414.34;;;14.52;66.32
13553;BME280;6847;48.830;9.116;2022-12-24T01:01:32;97427.03;;;14.57;66.02
13553;BME280;6847;48.830;9.116;2022-12-24T01:04:02;97435.06;;;14.62;66.12
13553;BME280;6847;48.830;9.116;2022-12-24T01:06:49;97447.75;;;14.66;65.91
13553;BME280;6847;48.830;9.116;2022-12-24T01:09:17;97443.25;;;14.70;65.82
13553;BME280;6847;48.830;9.116;2022-12-24T01:11:46;97462.69;;;14.69;65.73
13553;BME280;6847;48.830;9.116;2022-12-24T01:14:15;97465.53;;;14.64;65.99
13553;BME280;6847;48.830;9.116;2022-12-24T01:16:43;97465.34;;;14.60;65.83
13553;BME280;6847;48.830;9.116;2022-12-24T01:19:12;97469.00;;;14.56;65.99
13553;BME280;6847;48.830;9.116;2022-12-24T01:21:40;97474.28;;;14.52;66.03
13553;BME280;6847;48.830;9.116;2022-12-24T01:24:12;97483.41;;;14.48;65.93
13553;BME280;6847;48.830;9.116;2022-12-24T01:26:40;97479.69;;;14.43;65.93
13553;BME280;6847;48.830;9.116;2022-12-24T01:29:09;97487.34;;;14.41;65.96
13553;BME280;6847;48.830;9.116;2022-12-24T01:31:38;97502.56;;;14.42;66.08
13553;BME280;6847;48.830;9.116;2022-12-24T01:34:06;97517.91;;;14.38;66.06
13553;BME280;6847;48.830;9.116;2022-12-24T01:36:35;97524.22;;;14.25;66.19
13553;BME280;6847;48.830;9.116;2022-12-24T01:39:07;97519.56;;;14.03;66.46
13553;BME280;6847;48.830;9.116;2022-12-24T01:41:46;97501.00;;;13.83;66.99
13553;BME280;6847;48.830;9.116;2022-12-24T01:44:37;97496.53;;;13.65;68.33
13553;BME280;6847;48.830;9.116;2022-12-24T01:47:10;97511.75;;;13.52;69.22
13553;BME280;6847;48.830;9.116;2022-12-24T01:49:41;97517.41;;;13.42;69.92
13553;BME280;6847;48.830;9.116;2022-12-24T01:52:15;97526.28;;;13.34;70.35
13553;BME280;6847;48.830;9.116;2022-12-24T01:54:48;97530.75;;;13.30;70.72
13553;BME280;6847;48.830;9.116;2022-12-24T01:57:21;97544.94;;;13.27;70.86
13553;BME280;6847;48.830;9.116;2022-12-24T01:59:54;97551.66;;;13.16;71.61
13553;BME280;6847;48.830;9.116;2022-12-24T02:02:23;97555.66;;;13.05;71.50
13553;BME280;6847;48.830;9.116;2022-12-24T02:05:02;97556.47;;;12.91;72.03
13553;BME280;6847;48.830;9.116;2022-12-24T02:07:34;97567.34;;;12.91;72.27
13553;BME280;6847;48.830;9.116;2022-12-24T02:10:06;97561.69;;;12.88;72.29
13553;BME280;6847;48.830;9.116;2022-12-24T02:12:37;97563.09;;;12.85;72.81
13553;BME280;6847;48.830;9.116;2022-12-24T02:15:11;97551.22;;;12.81;73.52
13553;BME280;6847;48.830;9.116;2022-12-24T02:17:46;97548.22;;;12.83;73.40
13553;BME280;6847;48.830;9.116;2022-12-24T02:20:34;97543.06;;;12.81;74.27
13553;BME280;6847;48.830;9.116;2022-12-24T02:23:25;97548.59;;;12.76;74.26
13553;BME280;6847;48.830;9.116;2022-12-24T02:26:20;97549.28;;;12.68;74.33
13553;BME280;6847;48.830;9.116;2022-12-24T02:29:13;97556.41;;;12.64;75.09
13553;BME280;6847;48.830;9.116;2022-12-24T02:31:58;97556.56;;;12.54;75.44
13553;BME280;6847;48.830;9.116;2022-12-24T02:34:31;97498.22;;;12.24;75.38
13553;BME280;6847;48.830;9.116;2022-12-24T02:37:09;97545.13;;;12.57;75.46
13553;BME280;6847;48.830;9.116;2022-12-24T02:39:45;97550.56;;;12.57;75.43
13553;BME280;6847;48.830;9.116;2022-12-24T02:42:19;97548.94;;;12.56;75.97
13553;BME280;6847;48.830;9.116;2022-12-24T02:44:50;97544.88;;;12.40;75.54
13553;BME280;6847;48.830;9.116;2022-12-24T02:47:25;97575.28;;;12.55;75.60
13553;BME280;6847;48.830;9.116;2022-12-24T02:49:56;97583.72;;;12.54;75.08
13553;BME280;6847;48.830;9.116;2022-12-24T02:52:38;97582.38;;;12.38;75.52
13553;BME280;6847;48.830;9.116;2022-12-24T02:55:10;97602.63;;;12.45;75.72
13553;BME280;6847;48.830;9.116;2022-12-24T02:57:48;97572.94;;;12.16;75.47
13553;BME280;6847;48.830;9.116;2022-12-24T03:00:20;97606.22;;;12.41;76.02
13553;BME280;6847;48.830;9.116;2022-12-24T03:03:15;97598.59;;;12.43;76.01
13553;BME280;6847;48.830;9.116;2022-12-24T03:05:51;97608.28;;;12.49;75.86
13553;BME280;6847;48.830;9.116;2022-12-24T03:08:27;97603.34;;;12.51;76.34
13553;BME280;6847;48.830;9.116;2022-12-24T03:11:03;97610.69;;;12.50;75.72
13553;BME280;6847;48.830;9.116;2022-12-24T03:13:33;97595.72;;;12.34;75.57
13553;BME280;6847;48.830;9.116;2022-12-24T03:16:05;97623.47;;;12.50;75.87
13553;BME280;6847;48.830;9.116;2022-12-24T03:18:41;97615.31;;;12.50;75.99
13553;BME280;6847;48.830;9.116;2022-12-24T03:21:15;97624.56;;;12.49;76.00
13553;BME280;6847;48.830;9.116;2022-12-24T03:23:46;97641.09;;;12.52;75.91
13553;BME280;6847;48.830;9.116;2022-12-24T03:26:16;97645.09;;;12.55;76.16
13553;BME280;6847;48.830;9.116;2022-12-24T03:28:44;97642.88;;;12.57;75.70
13553;BME280;6847;48.830;9.116;2022-12-24T03:31:13;97637.75;;;12.55;75.67
13553;BME280;6847;48.830;9.116;2022-12-24T03:33:42;97632.59;;;12.54;75.56
13553;BME280;6847;48.830;9.116;2022-12-24T03:36:10;97628.31;;;12.53;75.46
13553;BME280;6847;48.830;9.116;2022-12-24T03:38:38;97638.03;;;12.54;76.25
13553;BME280;6847;48.830;9.116;2022-12-24T03:41:11;97636.34;;;12.58;76.00
13553;BME280;6847;48.830;9.116;2022-12-24T03:43:42;97654.19;;;12.64;75.69
13553;BME280;6847;48.830;9.116;2022-12-24T03:46:10;97644.63;;;12.67;76.00
13553;BME280;6847;48.830;9.116;2022-12-24T03:48:40;97651.41;;;12.69;75.96
13553;BME280;6847;48.830;9.116;2022-12-24T03:51:16;97642.72;;;12.67;76.16
13553;BME280;6847;48.830;9.116;2022-12-24T03:53:48;97637.81;;;12.69;76.55
13553;BME280;6847;48.830;9.116;2022-12-24T03:56:15;97642.66;;;12.72;76.01
13553;BME280;6847;48.830;9.116;2022-12-24T03:58:45;97639.34;;;12.75;76.06
13553;BME280;6847;48.830;9.116;2022-12-24T04:01:18;97644.19;;;12.78;76.24
13553;BME280;6847;48.830;9.116;2022-12-24T04:03:47;97645.22;;;12.82;76.55
13553;BME280;6847;48.830;9.116;2022-12-24T04:06:17;97646.22;;;12.86;76.13
13553;BME280;6847;48.830;9.116;2022-12-24T04:08:46;97646.13;;;12.91;75.84
13553;BME280;6847;48.830;9.116;2022-12-24T04:11:17;97635.34;;;12.86;76.22
13553;BME280;6847;48.830;9.116;2022-12-24T04:13:46;97648.25;;;12.94;76.53
13553;BME280;6847;48.830;9.116;2022-12-24T04:16:15;97644.59;;;12.85;76.16
13553;BME280;6847;48.830;9.116;2022-12-24T04:18:43;97657.19;;;12.95;76.19
13553;BME280;6847;48.830;9.116;2022-12-24T04:21:15;97599.44;;;12.57;75.88
13553;BME280;6847;48.830;9.116;2022-12-24T04:23:47;97661.34;;;12.92;75.83
13553;BME280;6847;48.830;9.116;2022-12-24T04:26:14;97662.13;;;12.93;76.34
13553;BME280;6847;48.830;9.116;2022-12-24T04:28:42;97661.34;;;12.92;75.81
13553;BME280;6847;48.830;9.116;2022-12-24T04:31:12;97658.63;;;12.92;76.15
13553;BME280;6847;48.830;9.116;2022-12-24T04:33:41;97658.31;;;12.94;76.27
13553;BME280;6847;48.830;9.116;2022-12-24T04:36:12;97649.84;;;12.95;76.40
13553;BME280;6847;48.830;9.116;2022-12-24T04:38:45;97660.66;;;13.01;75.86
13553;BME280;6847;48.830;9.116;2022-12-24T04:41:17;97659.03;;;13.00;76.08
13553;BME280;6847;48.830;9.116;2022-12-24T04:43:49;97668.34;;;12.93;75.67
13553;BME280;6847;48.830;9.116;2022-12-24T04:46:22;97677.41;;;12.89;75.96
13553;BME280;6847;48.830;9.116;2022-12-24T04:48:53;97675.00;;;12.87;76.27
13553;BME280;6847;48.830;9.116;2022-12-24T04:51:20;97666.94;;;12.82;76.54
13553;BME280;6847;48.830;9.116;2022-12-24T04:53:52;97672.22;;;12.92;76.07
13553;BME280;6847;48.830;9.116;2022-12-24T04:56:24;97680.84;;;12.94;76.15
13553;BME280;6847;48.830;9.116;2022-12-24T04:58:56;97693.31;;;12.95;76.11
13553;BME280;6847;48.830;9.116;2022-12-24T05:01:26;97681.94;;;12.93;76.32
13553;BME280;6847;48.830;9.116;2022-12-24T05:03:54;97680.94;;;12.89;75.84
13553;BME280;6847;48.830;9.116;2022-12-24T05:06:25;97677.81;;;12.82;75.75
13553;BME280;6847;48.830;9.116;2022-12-24T05:08:55;97681.97;;;12.75;75.68
13553;BME280;6847;48.830;9.116;2022-12-24T05:11:29;97668.88;;;12.63;76.02
13553;BME280;6847;48.830;9.116;2022-12-24T05:13:58;97670.03;;;12.57;75.98
13553;BME280;6847;48.830;9.116;2022-12-24T05:16:26;97573.63;;;11.90;75.97
13553;BME280;6847;48.830;9.116;2022-12-24T05:18:56;97683.50;;;12.48;76.65
13553;BME280;6847;48.830;9.116;2022-12-24T05:21:24;97684.88;;;12.46;76.06
13553;BME280;6847;48.830;9.116;2022-12-24T05:23:58;97666.97;;;12.45;76.27
13553;BME280;6847;48.830;9.116;2022-12-24T05:26:44;97673.00;;;12.42;76.43
13553;BME280;6847;48.830;9.116;2022-12-24T05:29:20;97680.06;;;12.43;76.53
13553;BME280;6847;48.830;9.116;2022-12-24T05:31:48;97681.63;;;12.44;77.12
13553;BME280;6847;48.830;9.116;2022-12-24T05:34:18;97688.19;;;12.43;76.90
13553;BME280;6847;48.830;9.116;2022-12-24T05:36:46;97685.78;;;12.41;76.65
13553;BME280;6847;48.830;9.116;2022-12-24T05:39:30;97652.00;;;12.29;77.21
13553;BME280;6847;48.830;9.116;2022-12-24T05:42:01;97672.53;;;12.35;76.46
13553;BME280;6847;48.830;9.116;2022-12-24T05:44:32;97679.53;;;12.41;77.03
13553;BME280;6847;48.830;9.116;2022-12-24T05:47:04;97671.91;;;12.43;77.04
13553;BME280;6847;48.830;9.116;2022-12-24T05:49:34;97686.28;;;12.43;76.64
13553;BME280;6847;48.830;9.116;2022-12-24T05:52:15;97682.25;;;12.41;76.50
13553;BME280;6847;48.830;9.116;2022-12-24T05:54:50;97679.00;;;12.39;76.57
13553;BME280;6847;48.830;9.116;2022-12-24T05:57:19;97687.16;;;12.39;76.80
13553;BME280;6847;48.830;9.116;2022-12-24T05:59:58;97686.63;;;12.37;76.83
13553;BME280;6847;48.830;9.116;2022-12-24T06:02:26;97695.88;;;12.36;76.32
13553;BME280;6847;48.830;9.116;2022-12-24T06:04:53;97685.63;;;12.33;76.32
13553;BME280;6847;48.830;9.116;2022-12-24T06:07:23;97684.53;;;12.34;76.55
13553;BME280;6847;48.830;9.116;2022-12-24T06:10:00;97698.09;;;12.34;76.25
13553;BME280;6847;48.830;9.116;2022-12-24T06:12:33;97698.59;;;12.36;76.69
13553;BME280;6847;48.830;9.116;2022-12-24T06:14:59;97705.34;;;12.38;76.44
13553;BME280;6847;48.830;9.116;2022-12-24T06:17:26;97707.22;;;12.43;76.63
13553;BME280;6847;48.830;9.116;2022-12-24T06:19:53;97706.59;;;12.46;76.72
13553;BME280;6847;48.830;9.116;2022-12-24T06:22:21;97679.59;;;12.36;77.01
13553;BME280;6847;48.830;9.116;2022-12-24T06:24:48;97707.06;;;12.53;76.93
13553;BME280;6847;48.830;9.116;2022-12-24T06:27:21;97715.69;;;12.55;76.26
13553;BME280;6847;48.830;9.116;2022-12-24T06:29:48;97715.69;;;12.55;76.07
13553;BME280;6847;48.830;9.116;2022-12-24T06:32:15;97723.84;;;12.55;76.13
13553;BME280;6847;48.830;9.116;2022-12-24T06:34:44;97722.22;;;12.54;76.46
13553;BME280;6847;48.830;9.116;2022-12-24T06:37:11;97721.13;;;12.55;76.50
13553;BME280;6847;48.830;9.116;2022-12-24T06:39:42;97731.19;;;12.54;76.41
13553;BME280;6847;48.830;9.116;2022-12-24T06:42:10;97738.22;;;12.55;76.28
13553;BME280;6847;48.830;9.116;2022-12-24T06:44:40;97746.66;;;12.54;75.88
13553;BME280;6847;48.830;9.116;2022-12-24T06:47:08;97746.09;;;12.57;76.18
13553;BME280;6847;48.830;9.116;2022-12-24T06:49:35;97749.31;;;12.59;76.34
13553;BME280;6847;48.830;9.116;2022-12-24T06:52:02;97759.59;;;12.62;75.89
13553;BME280;6847;48.830;9.116;2022-12-24T06:54:31;97772.28;;;12.67;75.96
13553;BME280;6847;48.830;9.116;2022-12-24T06:56:57;97765.19;;;12.71;75.85
13553;BME280;6847;48.830;9.116;2022-12-24T06:59:29;97765.38;;;12.74;76.08
13553;BME280;6847;48.830;9.116;2022-12-24T07:02:10;97766.94;;;12.80;76.41
13553;BME280;6847;48.830;9.116;2022-12-24T07:04:36;97763.31;;;12.85;76.23
13553;BME280;6847;48.830;9.116;2022-12-24T07:07:04;97671.44;;;12.36;76.28
13553;BME280;6847;48.830;9.116;2022-12-24T07:09:31;97765.38;;;12.93;75.99
13553;BME280;6847;48.830;9.116;2022-12-24T07:11:58;97773.84;;;12.91;76.05
13553;BME280;6847;48.830;9.116;2022-12-24T07:14:28;97776.03;;;12.89;75.70
13553;BME280;6847;48.830;9.116;2022-12-24T07:16:55;97782.06;;;12.86;76.01
13553;BME280;6847;48.830;9.116;2022-12-24T07:19:24;97781.03;;;12.82;75.66
13553;BME280;6847;48.830;9.116;2022-12-24T07:21:52;97785.44;;;12.78;75.23
13553;BME280;6847;48.830;9.116;2022-12-24T07:24:18;97790.44;;;12.71;75.09
13553;BME280;6847;48.830;9.116;2022-12-24T07:26:47;97794.84;;;12.67;75.26
13553;BME280;6847;48.830;9.116;2022-12-24T07:29:15;97804.97;;;12.62;75.24
13553;BME280;6847;48.830;9.116;2022-12-24T07:31:43;97649.19;;;11.54;75.30
13553;BME280;6847;48.830;9.116;2022-12-24T07:34:09;97824.56;;;12.58;75.77
13553;BME280;6847;48.830;9.116;2022-12-24T07:36:37;97823.16;;;12.61;75.33
13553;BME280;6847;48.830;9.116;2022-12-24T07:39:06;97781.13;;;12.35;75.66
13553;BME280;6847;48.830;9.116;2022-12-24T07:41:32;97813.94;;;12.62;75.42
13553;BME280;6847;48.830;9.116;2022-12-24T07:43:59;97820.16;;;12.63;75.32
13553;BME280;6847;48.830;9.116;2022-12-24T07:46:26;97823.16;;;12.61;75.60
13553;BME280;6847;48.830;9.116;2022-12-24T07:48:52;97824.78;;;12.62;75.87
13553;BME280;6847;48.830;9.116;2022-12-24T07:51:19;97826.97;;;12.60;75.69
13553;BME280;6847;48.830;9.116;2022-12-24T07:53:47;97789.81;;;12.37;75.69
13553;BME280;6847;48.830;9.116;2022-12-24T07:56:17;97824.78;;;12.62;75.89
13553;BME280;6847;48.830;9.116;2022-12-24T07:58:43;97821.47;;;12.65;75.06
13553;BME280;6847;48.830;9.116;2022-12-24T08:01:10;97816.69;;;12.57;75.71
13553;BME280;6847;48.830;9.116;2022-12-24T08:03:38;97829.03;;;12.68;75.57
13553;BME280;6847;48.830;9.116;2022-12-24T08:06:09;97833.91;;;12.71;75.75
13553;BME280;6847;48.830;9.116;2022-12-24T08:08:36;97831.09;;;12.76;75.91
13553;BME280;6847;48.830;9.116;2022-12-24T08:11:06;97828.31;;;12.81;75.90
13553;BME280;6847;48.830;9.116;2022-12-24T08:13:34;97847.84;;;12.83;75.42
13553;BME280;6847;48.830;9.116;2022-12-24T08:16:01;97823.47;;;12.78;75.68
13553;BME280;6847;48.830;9.116;2022-12-24T08:18:27;97840.06;;;12.95;75.32
13553;BME280;6847;48.830;9.116;2022-12-24T08:20:54;97849.25;;;13.00;75.15
13553;BME280;6847;48.830;9.116;2022-12-24T08:23:21;97790.94;;;12.73;75.67
13553;BME280;6847;48.830;9.116;2022-12-24T08:25:50;97851.22;;;13.13;75.46
13553;BME280;6847;48.830;9.116;2022-12-24T08:28:19;97825.91;;;12.98;75.22
13553;BME280;6847;48.830;9.116;2022-12-24T08:30:47;97866.94;;;13.21;75.21
13553;BME280;6847;48.830;9.116;2022-12-24T08:33:14;97838.25;;;13.10;74.98
13553;BME280;6847;48.830;9.116;2022-12-24T08:35:40;97862.44;;;13.30;75.45
13553;BME280;6847;48.830;9.116;2022-12-24T08:38:12;97870.72;;;13.39;75.07
13553;BME280;6847;48.830;9.116;2022-12-24T08:40:38;97874.69;;;13.46;75.09
13553;BME280;6847;48.830;9.116;2022-12-24T08:43:04;97867.56;;;13.50;75.23
13553;BME280;6847;48.830;9.116;2022-12-24T08:45:41;97870.47;;;13.54;74.75
13553;BME280;6847;48.830;9.116;2022-12-24T08:48:08;97866.38;;;13.56;75.19
13553;BME280;6847;48.830;9.116;2022-12-24T08:50:39;97857.78;;;13.49;74.82
13553;BME280;6847;48.830;9.116;2022-12-24T08:53:10;97848.22;;;13.33;74.97
13553;BME280;6847;48.830;9.116;2022-12-24T08:55:40;97835.97;;;13.17;74.86
13553;BME280;6847;48.830;9.116;2022-12-24T08:58:07;97886.88;;;13.49;74.79
13553;BME280;6847;48.830;9.116;2022-12-24T09:00:36;97839.28;;;13.14;74.61
13553;BME280;6847;48.830;9.116;2022-12-24T09:03:05;97888.28;;;13.46;75.14
13553;BME280;6847;48.830;9.116;2022-12-24T09:05:32;97888.81;;;13.48;74.83
13553;BME280;6847;48.830;9.116;2022-12-24T09:08:00;97893.13;;;13.49;74.99
13553;BME280;6847;48.830;9.116;2022-12-24T09:10:27;97896.28;;;13.56;74.81
13553;BME280;6847;48.830;9.116;2022-12-24T09:12:54;97838.25;;;13.28;74.78
13553;BME280;6847;48.830;9.116;2022-12-24T09:15:20;97849.88;;;13.66;74.98
13553;BME280;6847;48.830;9.116;2022-12-24T09:17:47;97904.53;;;14.30;74.85
13553;BME280;6847;48.830;9.116;2022-12-24T09:20:18;97907.94;;;14.68;74.61
13553;BME280;6847;48.830;9.116;2022-12-24T09:22:45;97916.34;;;15.21;74.31
13553;BME280;6847;48.830;9.116;2022-12-24T09:25:12;97916.00;;;15.72;73.74
13553;BME280;6847;48.830;9.116;2022-12-24T09:27:40;97841.09;;;15.42;73.77
13553;BME280;6847;48.830;9.116;2022-12-24T09:30:09;97922.06;;;16.14;73.75
13553;BME280;6847;48.830;9.116;2022-12-24T09:32:35;97935.25;;;16.43;73.17
13553;BME280;6847;48.830;9.116;2022-12-24T09:35:02;97938.41;;;17.07;72.71
13553;BME280;6847;48.830;9.116;2022-12-24T09:37:34;97936.25;;;17.78;71.68
13553;BME280;6847;48.830;9.116;2022-12-24T09:40:02;97894.19;;;18.55;70.22
13553;BME280;6847;48.830;9.116;2022-12-24T09:42:39;97927.84;;;20.14;67.55
13553;BME280;6847;48.830;9.116;2022-12-24T09:45:15;97902.44;;;21.11;65.31
13553;BME280;6847;48.830;9.116;2022-12-24T09:47:47;97943.16;;;22.22;63.95
13553;BME280;6847;48.830;9.116;2022-12-24T09:50:31;97931.59;;;22.76;62.95
13553;BME280;6847;48.830;9.116;2022-12-24T09:53:13;97932.56;;;23.66;61.46
13553;BME280;6847;48.830;9.116;2022-12-24T09:55:44;97935.56;;;24.34;60.03
13553;BME280;6847;48.830;9.116;2022-12-24T09:58:19;97891.06;;;24.65;59.19
13553;BME280;6847;48.830;9.116;2022-12-24T10:00:48;97942.63;;;25.46;58.39
13553;BME280;6847;48.830;9.116;2022-12-24T10:03:17;97948.81;;;25.62;58.75
13553;BME280;6847;48.830;9.116;2022-12-24T10:05:52;97944.19;;;25.47;59.47
13553;BME280;6847;48.830;9.116;2022-12-24T10:08:30;97934.75;;;24.33;60.54
13553;BME280;6847;48.830;9.116;2022-12-24T10:11:04;97913.56;;;23.64;62.08
13553;BME280;6847;48.830;9.116;2022-12-24T10:13:46;97944.56;;;23.73;62.40
13553;BME280;6847;48.830;9.116;2022-12-24T10:16:22;97947.16;;;23.15;63.47
13553;BME280;6847;48.830;9.116;2022-12-24T10:18:58;97686.78;;;20.79;64.63
13553;BME280;6847;48.830;9.116;2022-12-24T10:21:38;97947.72;;;21.62;66.38
13553;BME280;6847;48.830;9.116;2022-12-24T10:24:15;97945.44;;;20.91;67.07
13553;BME280;6847;48.830;9.116;2022-12-24T10:26:45;97799.53;;;19.40;68.09
13553;BME280;6847;48.830;9.116;2022-12-24T10:29:24;97918.25;;;19.67;68.87
13553;BME280;6847;48.830;9.116;2022-12-24T10:31:57;97882.94;;;18.85;69.12
13553;BME280;6847;48.830;9.116;2022-12-24T10:34:28;97960.03;;;18.93;69.75
13553;BME280;6847;48.830;9.116;2022-12-24T10:36:56;97961.91;;;18.54;70.50
13553;BME280;6847;48.830;9.116;2022-12-24T10:39:26;97957.00;;;18.22;70.99
13553;BME280;6847;48.830;9.116;2022-12-24T10:42:06;97906.59;;;17.54;70.93
13553;BME280;6847;48.830;9.116;2022-12-24T10:44:35;97956.25;;;17.69;71.82
13553;BME280;6847;48.830;9.116;2022-12-24T10:47:02;97954.59;;;17.60;72.32
13553;BME280;6847;48.830;9.116;2022-12-24T10:49:35;97661.97;;;15.60;72.05
13553;BME280;6847;48.830;9.116;2022-12-24T10:52:05;97770.75;;;16.15;72.45
13553;BME280;6847;48.830;9.116;2022-12-24T10:55:11;97529.06;;;14.28;71.97
13553;BME280;6847;48.830;9.116;2022-12-24T10:57:57;97959.38;;;16.72;72.66
13553;BME280;6847;48.830;9.116;2022-12-24T11:00:26;97655.22;;;14.60;73.19
13553;BME280;6847;48.830;9.116;2022-12-24T11:03:07;97929.78;;;16.12;73.53
13553;BME280;6847;48.830;9.116;2022-12-24T11:05:35;97943.94;;;16.14;73.51
13553;BME280;6847;48.830;9.116;2022-12-24T11:08:13;97940.81;;;16.07;73.65
13553;BME280;6847;48.830;9.116;2022-12-24T11:10:56;97530.91;;;13.47;73.97
13553;BME280;6847;48.830;9.116;2022-12-24T11:13:27;97939.53;;;16.04;73.79
13553;BME280;6847;48.830;9.116;2022-12-24T11:16:03;97947.22;;;16.02;73.99
13553;BME280;6847;48.830;9.116;2022-12-24T11:18:32;97937.00;;;15.85;73.73
13553;BME280;6847;48.830;9.116;2022-12-24T11:21:00;97924.31;;;15.67;74.23
13553;BME280;6847;48.830;9.116;2022-12-24T11:23:29;97943.00;;;15.74;74.24
13553;BME280;6847;48.830;9.116;2022-12-24T11:25:57;97952.22;;;15.64;74.50
13553;BME280;6847;48.830;9.116;2022-12-24T11:28:26;97958.91;;;15.58;74.17
13553;BME280;6847;48.830;9.116;2022-12-24T11:30:56;97927.53;;;15.33;74.48
13553;BME280;6847;48.830;9.116;2022-12-24T11:33:27;97950.44;;;15.46;74.73
13553;BME280;6847;48.830;9.116;2022-12-24T11:36:02;97954.28;;;15.45;74.66
13553;BME280;6847;48.830;9.116;2022-12-24T11:38:31;97954.28;;;15.45;74.43
13553;BME280;6847;48.830;9.116;2022-12-24T11:41:03;97926.22;;;15.31;74.50
13553;BME280;6847;48.830;9.116;2022-12-24T11:43:44;97947.59;;;15.51;74.41
13553;BME280;6847;48.830;9.116;2022-12-24T11:46:20;97904.63;;;15.21;74.46
13553;BME280;6847;48.830;9.116;2022-12-24T11:49:05;97941.56;;;15.54;74.35
13553;BME280;6847;48.830;9.116;2022-12-24T11:51:32;97863.47;;;14.95;74.29
13553;BME280;6847;48.830;9.116;2022-12-24T11:54:12;97950.63;;;15.63;74.32
13553;BME280;6847;48.830;9.116;2022-12-24T11:56:46;97948.38;;;15.65;74.16
13553;BME280;6847;48.830;9.116;2022-12-24T11:59:22;97952.09;;;15.69;74.07
13553;BME280;6847;48.830;9.116;2022-12-24T12:01:56;97940.06;;;15.70;74.40
13553;BME280;6847;48.830;9.116;2022-12-24T12:04:26;97944.31;;;15.76;74.17
13553;BME280;6847;48.830;9.116;2022-12-24T12:06:58;97946.09;;;15.81;74.39
13553;BME280;6847;48.830;9.116;2022-12-24T12:09:28;97941.44;;;15.81;74.10
13553;BME280;6847;48.830;9.116;2022-12-24T12:12:00;97929.41;;;15.82;74.00
13553;BME280;6847;48.830;9.116;2022-12-24T12:14:34;97931.34;;;15.82;73.68
13553;BME280;6847;48.830;9.116;2022-12-24T12:17:05;97933.75;;;15.83;73.84
13553;BME280;6847;48.830;9.116;2022-12-24T12:19:43;97879.97;;;15.48;73.77
13553;BME280;6847;48.830;9.116;2022-12-24T12:22:23;97801.47;;;15.00;74.15
13553;BME280;6847;48.830;9.116;2022-12-24T12:24:56;97937.47;;;15.87;74.00
13553;BME280;6847;48.830;9.116;2022-12-24T12:27:32;97938.97;;;15.94;73.83
13553;BME280;6847;48.830;9.116;2022-12-24T12:30:14;97908.94;;;15.71;74.09
13553;BME280;6847;48.830;9.116;2022-12-24T12:32:49;97743.44;;;14.64;73.60
13553;BME280;6847;48.830;9.116;2022-12-24T12:35:24;97953.75;;;15.93;73.97
13553;BME280;6847;48.830;9.116;2022-12-24T12:37:56;97961.94;;;15.93;74.13
13553;BME280;6847;48.830;9.116;2022-12-24T12:40:34;97953.13;;;15.96;73.72
13553;BME280;6847;48.830;9.116;2022-12-24T12:43:18;97969.50;;;15.96;73.97
13553;BME280;6847;48.830;9.116;2022-12-24T12:45:53;97965.16;;;15.95;73.76
13553;BME280;6847;48.830;9.116;2022-12-24T12:48:40;97962.78;;;16.02;73.58
13553;BME280;6847;48.830;9.116;2022-12-24T12:51:14;97966.19;;;16.07;74.04
13553;BME280;6847;48.830;9.116;2022-12-24T12:54:03;97973.16;;;16.13;73.76
13553;BME280;6847;48.830;9.116;2022-12-24T12:56:39;97961.69;;;16.25;74.24
13553;BME280;6847;48.830;9.116;2022-12-24T12:59:17;97951.38;;;16.53;74.31
13553;BME280;6847;48.830;9.116;2022-12-24T13:01:55;97897.16;;;16.46;74.30
13553;BME280;6847;48.830;9.116;2022-12-24T13:05:03;97964.66;;;17.16;74.13
13553;BME280;6847;48.830;9.116;2022-12-24T13:07:50;97961.88;;;17.73;73.91
13553;BME280;6847;48.830;9.116;2022-12-24T13:10:48;97946.41;;;18.11;73.59
13553;BME280;6847;48.830;9.116;2022-12-24T13:16:55;97957.09;;;18.42;73.28
13553;BME280;6847;48.830;9.116;2022-12-24T13:19:38;97967.84;;;18.73;74.23
13553;BME280;6847;48.830;9.116;2022-12-24T13:22:14;97953.41;;;19.23;73.97
13553;BME280;6847;48.830;9.116;2022-12-24T13:24:47;97959.16;;;19.59;73.95
13553;BME280;6847;48.830;9.116;2022-12-24T13:27:18;97960.19;;;19.76;73.71
13553;BME280;6847;48.830;9.116;2022-12-24T13:29:54;97964.34;;;19.82;73.49
13553;BME280;6847;48.830;9.116;2022-12-24T13:32:49;97968.38;;;19.64;73.10
13553;BME280;6847;48.830;9.116;2022-12-24T13:35:55;97970.25;;;19.42;73.42
13553;BME280;6847;48.830;9.116;2022-12-24T13:38:50;97963.47;;;19.19;73.54
13553;BME280;6847;48.830;9.116;2022-12-24T13:44:26;97952.00;;;18.88;73.53